createdAt,value
2023-01-20T00:00:17.738Z,33.60
2023-01-20T00:05:22.039Z,33.50
2023-01-20T00:10:24.956Z,33.50
2023-01-20T00:15:28.120Z,33.60
2023-01-20T00:20:32.387Z,33.20
2023-01-20T00:25:37.419Z,33.10
2023-01-20T00:30:41.918Z,33.60
2023-01-20T00:35:46.267Z,33.00
2023-01-20T00:40:55.230Z,32.90
2023-01-20T00:45:58.219Z,33.60
2023-01-20T00:51:03.196Z,33.10
2023-01-20T00:56:06.826Z,33.00
2023-01-20T01:01:10.243Z,33.10
2023-01-20T01:06:16.356Z,33.30
2023-01-20T01:11:19.253Z,33.30
2023-01-20T01:16:22.185Z,33.00
2023-01-20T01:21:26.686Z,32.80
2023-01-20T01:26:29.581Z,32.70
2023-01-20T01:31:32.533Z,32.50
2023-01-20T01:36:36.816Z,32.40
2023-01-20T01:41:39.680Z,32.40
2023-01-20T01:46:43.288Z,32.50
2023-01-20T01:51:51.726Z,33.10
2023-01-20T01:56:54.937Z,32.70
2023-01-20T02:01:58.499Z,32.80
2023-01-20T02:07:06.505Z,32.80
2023-01-20T02:12:14.049Z,32.60
2023-01-20T02:17:23.352Z,32.90
2023-01-20T02:22:37.101Z,32.10
2023-01-20T02:28:06.684Z,32.00
2023-01-20T02:33:14.470Z,32.00
2023-01-20T02:38:25.313Z,32.10
2023-01-20T02:43:37.734Z,32.10
2023-01-20T02:48:45.580Z,32.10
2023-01-20T02:53:51.437Z,32.10
2023-01-20T02:58:58.576Z,32.20
2023-01-20T03:04:05.007Z,32.20
2023-01-20T03:09:12.432Z,32.20
2023-01-20T03:14:16.445Z,32.00
2023-01-20T03:19:21.226Z,32.00
2023-01-20T03:24:26.949Z,32.00
2023-01-20T03:29:30.645Z,32.00
2023-01-20T03:34:38.807Z,31.90
2023-01-20T03:39:41.884Z,32.00
2023-01-20T03:44:57.558Z,32.00
2023-01-20T03:50:10.187Z,32.00
2023-01-20T03:55:17.490Z,31.90
2023-01-20T04:00:22.443Z,31.90
2023-01-20T04:05:27.418Z,31.90
2023-01-20T04:10:32.936Z,31.90
2023-01-20T04:15:39.535Z,31.80
2023-01-20T04:20:45.451Z,31.80
2023-01-20T04:25:48.412Z,31.70
2023-01-20T04:30:51.491Z,31.80
2023-01-20T04:35:55.790Z,31.70
2023-01-20T04:40:58.658Z,31.70
2023-01-20T04:46:01.613Z,31.70
2023-01-20T04:51:07.297Z,31.70
2023-01-20T04:56:13.064Z,31.70
2023-01-20T05:01:16.040Z,31.80
2023-01-20T05:06:20.318Z,31.80
2023-01-20T05:11:23.296Z,31.80
2023-01-20T05:16:31.791Z,31.60
2023-01-20T05:21:36.068Z,31.50
2023-01-20T05:26:38.945Z,31.50
2023-01-20T05:31:43.375Z,31.40
2023-01-20T05:36:47.928Z,31.30
2023-01-20T05:41:50.857Z,31.20
2023-01-20T05:46:53.746Z,31.30
2023-01-20T05:51:57.988Z,31.30
2023-01-20T05:57:00.876Z,31.30
2023-01-20T06:02:03.823Z,31.40
2023-01-20T06:07:08.095Z,31.30
2023-01-20T06:12:10.968Z,31.40
2023-01-20T06:17:13.904Z,31.50
2023-01-20T06:22:19.933Z,31.50
2023-01-20T06:27:22.935Z,31.50
2023-01-20T06:32:25.913Z,31.40
2023-01-20T06:37:30.183Z,31.40
2023-01-20T06:42:33.108Z,31.40
2023-01-20T06:47:36.052Z,31.40
2023-01-20T06:52:40.331Z,31.40
2023-01-20T06:57:43.211Z,31.40
2023-01-20T07:02:46.147Z,31.40
2023-01-20T07:07:50.428Z,31.40
2023-01-20T07:12:53.333Z,31.50
2023-01-20T07:18:11.423Z,31.50
2023-01-20T07:23:15.786Z,31.50
2023-01-20T07:28:18.683Z,31.30
2023-01-20T07:33:21.667Z,31.20
2023-01-20T07:38:26.187Z,31.20
2023-01-20T07:43:29.149Z,31.30
2023-01-20T07:48:33.789Z,31.30
2023-01-20T07:53:39.677Z,31.40
2023-01-20T07:58:43.051Z,31.40
2023-01-20T08:03:46.217Z,31.40
2023-01-20T08:08:51.834Z,31.30
2023-01-20T08:13:54.853Z,31.40
2023-01-20T08:18:57.812Z,31.50
2023-01-20T08:24:04.822Z,32.10
2023-01-20T08:29:09.558Z,31.50
2023-01-20T08:34:12.915Z,31.40
2023-01-20T08:39:19.161Z,31.40
2023-01-20T08:44:22.176Z,31.40
2023-01-20T08:49:25.233Z,31.40
2023-01-20T08:54:34.359Z,31.30
2023-01-20T08:59:37.298Z,31.20
2023-01-20T09:04:40.288Z,31.10
2023-01-20T09:09:44.870Z,31.20
2023-01-20T09:14:47.846Z,31.20
2023-01-20T09:19:51.792Z,31.30
2023-01-20T09:24:56.023Z,31.40
2023-01-20T09:29:58.910Z,31.40
2023-01-20T09:35:01.871Z,31.50
2023-01-20T09:40:24.522Z,31.50
2023-01-20T09:45:36.080Z,31.40
2023-01-20T09:51:04.619Z,31.50
2023-01-20T09:56:16.498Z,31.60
2023-01-20T10:01:25.035Z,31.50
2023-01-20T10:06:32.808Z,31.40
2023-01-20T10:11:41.141Z,31.40
2023-01-20T10:16:51.418Z,31.40
2023-01-20T10:21:56.923Z,31.40
2023-01-20T10:27:03.573Z,31.50
2023-01-20T10:32:13.650Z,31.50
2023-01-20T10:37:17.088Z,31.50
2023-01-20T10:42:21.739Z,31.50
2023-01-20T10:47:42.341Z,31.50
2023-01-20T10:52:57.829Z,31.60
2023-01-20T10:58:07.785Z,31.60
2023-01-20T11:03:16.845Z,31.70
2023-01-20T11:08:22.349Z,31.70
2023-01-20T11:13:26.859Z,31.70
2023-01-20T11:18:30.912Z,31.70
2023-01-20T11:23:40.079Z,31.50
2023-01-20T11:28:51.806Z,31.60
2023-01-20T11:34:00.398Z,31.60
2023-01-20T11:39:03.438Z,31.60
2023-01-20T11:44:08.027Z,31.60
2023-01-20T11:49:20.225Z,31.60
2023-01-20T11:54:26.056Z,31.60
2023-01-20T11:59:31.684Z,31.70
2023-01-20T12:04:57.602Z,31.70
2023-01-20T12:10:06.006Z,31.70
2023-01-20T12:15:16.670Z,31.80
2023-01-20T12:20:27.594Z,31.80
2023-01-20T12:25:33.019Z,31.80
2023-01-20T12:30:48.578Z,31.80
2023-01-20T12:36:12.704Z,31.80
2023-01-20T12:41:24.903Z,31.80
2023-01-20T12:46:39.186Z,31.90
2023-01-20T12:51:52.047Z,32.00
2023-01-20T12:57:03.391Z,31.90
2023-01-20T13:02:37.490Z,31.90
2023-01-20T13:07:49.738Z,32.00
2023-01-20T13:12:58.205Z,32.10
2023-01-20T13:18:25.193Z,31.90
2023-01-20T13:23:31.367Z,31.80
2023-01-20T13:28:35.094Z,31.70
2023-01-20T13:33:41.102Z,31.70
2023-01-20T13:38:44.634Z,31.80
2023-01-20T13:43:49.873Z,31.80
2023-01-20T13:49:26.723Z,31.90
2023-01-20T13:54:53.529Z,31.90
2023-01-20T13:59:57.317Z,32.00
2023-01-20T14:05:02.123Z,31.90
2023-01-20T14:10:05.705Z,32.00
2023-01-20T14:15:23.302Z,32.00
2023-01-20T14:20:29.704Z,32.00
2023-01-20T14:25:32.618Z,31.80
2023-01-20T14:30:35.664Z,31.80
2023-01-20T14:35:42.550Z,31.80
2023-01-20T14:40:45.603Z,31.80
2023-01-20T14:45:51.537Z,31.80
2023-01-20T14:50:56.932Z,31.70
2023-01-20T14:56:02.801Z,31.70
2023-01-20T15:01:07.534Z,31.70
2023-01-20T15:06:21.955Z,31.60
2023-01-20T15:11:28.390Z,31.50
2023-01-20T15:16:33.531Z,31.40
2023-01-20T15:21:37.946Z,31.50
2023-01-20T15:26:40.958Z,31.80
2023-01-20T15:31:44.099Z,31.80
2023-01-20T15:36:49.724Z,31.80
2023-01-20T15:41:54.786Z,31.80
2023-01-20T15:46:57.926Z,31.80
2023-01-20T15:52:02.214Z,31.80
2023-01-20T15:57:09.826Z,31.80
2023-01-20T16:02:18.782Z,31.70
2023-01-20T16:07:23.026Z,31.70
2023-01-20T16:12:25.910Z,31.70
2023-01-20T16:17:31.714Z,31.90
2023-01-20T16:22:35.973Z,32.00
2023-01-20T16:27:38.867Z,31.70
2023-01-20T16:32:41.773Z,31.60
2023-01-20T16:37:47.506Z,31.50
2023-01-20T16:42:50.508Z,31.50
2023-01-20T16:47:53.718Z,31.50
2023-01-20T16:52:58.206Z,31.50
2023-01-20T16:58:01.086Z,31.40
2023-01-20T17:03:04.422Z,31.60
2023-01-20T17:08:08.856Z,31.70
2023-01-20T17:13:11.835Z,31.70
2023-01-20T17:18:14.738Z,31.70
2023-01-20T17:23:18.998Z,31.80
2023-01-20T17:28:21.899Z,31.80
2023-01-20T17:33:24.939Z,31.80
2023-01-20T17:38:30.952Z,31.90
2023-01-20T17:43:34.589Z,32.10
2023-01-20T17:48:37.630Z,32.00
2023-01-20T17:53:42.067Z,31.90
2023-01-20T17:58:46.260Z,31.70
2023-01-20T18:03:50.840Z,31.70
2023-01-20T18:08:56.549Z,31.70
2023-01-20T18:14:00.614Z,31.70
2023-01-20T18:19:03.624Z,31.70
2023-01-20T18:24:09.451Z,31.70
2023-01-20T18:29:15.529Z,31.80
2023-01-20T18:34:18.460Z,31.70
2023-01-20T18:39:23.986Z,31.50
2023-01-20T18:44:26.940Z,31.60
2023-01-20T18:49:29.906Z,31.80
2023-01-20T18:54:37.093Z,31.70
2023-01-20T18:59:41.908Z,31.60
2023-01-20T19:04:44.901Z,31.50
2023-01-20T19:09:49.192Z,31.50
2023-01-20T19:14:52.576Z,31.40
2023-01-20T19:19:55.466Z,31.10
2023-01-20T19:25:00.203Z,31.00
2023-01-20T19:30:03.259Z,30.70
2023-01-20T19:35:06.784Z,30.80
2023-01-20T19:40:12.403Z,30.80
2023-01-20T19:45:16.186Z,30.90
2023-01-20T19:50:19.318Z,31.10
2023-01-20T19:55:23.679Z,31.20
2023-01-20T20:00:26.635Z,31.10
2023-01-20T20:05:29.520Z,31.50
2023-01-20T20:10:33.753Z,31.60
2023-01-20T20:15:36.723Z,31.80
2023-01-20T20:20:39.653Z,31.60
2023-01-20T20:25:49.766Z,32.20
2023-01-20T20:30:55.387Z,31.90
2023-01-20T20:35:58.363Z,31.90
2023-01-20T20:41:02.643Z,31.90
2023-01-20T20:46:07.625Z,31.60
2023-01-20T20:51:12.053Z,31.70
2023-01-20T20:56:17.943Z,31.90
2023-01-20T21:01:21.419Z,31.90
2023-01-20T21:06:24.833Z,31.90
2023-01-20T21:11:29.963Z,31.80
2023-01-20T21:16:32.920Z,31.80
2023-01-20T21:21:35.912Z,31.80
2023-01-20T21:26:40.560Z,31.60
2023-01-20T21:31:43.514Z,31.60
2023-01-20T21:36:46.523Z,31.70
2023-01-20T21:41:50.779Z,31.70
2023-01-20T21:46:53.772Z,31.70
2023-01-20T21:52:14.403Z,31.70
2023-01-20T21:57:18.733Z,31.60
2023-01-20T22:02:21.980Z,31.70
2023-01-20T22:07:25.282Z,31.80
2023-01-20T22:12:33.639Z,31.40
2023-01-20T22:17:36.524Z,31.30
2023-01-20T22:22:39.405Z,31.10
2023-01-20T22:27:43.633Z,31.00
2023-01-20T22:32:46.557Z,31.00
2023-01-20T22:37:49.562Z,31.00
2023-01-20T22:42:53.833Z,30.80
2023-01-20T22:47:57.224Z,30.80
2023-01-20T22:53:00.141Z,30.70
2023-01-20T22:58:04.415Z,30.60
2023-01-20T23:03:07.326Z,30.70
2023-01-20T23:08:10.267Z,30.60
2023-01-20T23:13:15.568Z,30.40
2023-01-20T23:18:18.939Z,30.30
2023-01-20T23:23:22.901Z,30.20
2023-01-20T23:28:27.189Z,30.20
2023-01-20T23:33:30.546Z,30.10
2023-01-20T23:38:33.508Z,30.30
2023-01-20T23:43:37.805Z,30.40
2023-01-20T23:48:40.886Z,30.30
2023-01-20T23:53:44.074Z,30.30
2023-01-20T23:58:49.152Z,30.40
